Time;durP1;ratioP1;P1;durP2;ratioP2;P2;SDS_P1;SDS_P2;PMS_P1;PMS_P2;Temp;Humidity;BMP_temperature;BMP_pressure;BME280_temperature;BME280_humidity;BME280_pressure;Samples;Min_cycle;Max_cycle;Signal;HPM_P1;HPM_P2
2021/01/09 06:41:59;;;;;;;;;;;;;;;;;;;;;
2021/01/09 07:05:10;;;;;;;29.38;18.95;;;2.80;99.90;;;;;;5904881;24;20207;-84
2021/01/09 07:28:51;;;;;;;32.47;19.10;;;2.40;99.90;;;;;;5909550;24;20209;-84
2021/01/09 07:38:01;;;;;;;21.13;15.45;;;2.50;99.90;;;;;;5727795;24;20220;-84
2021/01/09 07:47:48;;;;;;;27.35;16.92;;;2.60;99.90;;;;;;5800659;24;20250;-83
2021/01/09 08:56:08;;;;;;;15.88;12.38;;;2.90;99.90;;;;;;5847755;24;20245;-84
2021/01/09 09:02:19;;;;;;;17.48;14.20;;;2.90;99.90;;;;;;6071474;23;20216;-84
2021/01/09 09:05:46;;;;;;;;;;;;;;;;;;;;;
2021/01/09 09:15:16;;;;;;;20.23;12.98;;;3.30;99.90;;;;;;6015757;23;20184;-84
2021/01/09 09:17:57;;;;;;;19.17;14.15;;;3.50;99.90;;;;;;5917706;24;20207;-84
2021/01/09 09:20:27;;;;;;;19.08;11.82;;;3.70;99.90;;;;;;6039320;23;20264;-84
2021/01/09 09:22:55;;;;;;;21.55;13.55;;;3.60;99.90;;;;;;6047617;23;20233;-84
2021/01/09 09:25:31;;;;;;;20.35;13.35;;;3.70;99.90;;;;;;6046741;23;20181;-84
2021/01/09 09:28:10;;;;;;;22.15;15.63;;;3.80;99.90;;;;;;6046867;23;20666;-84
2021/01/09 09:30:36;;;;;;;19.35;15.45;;;3.80;99.90;;;;;;6047052;23;20206;-83
2021/01/09 09:33:40;;;;;;;18.60;13.77;;;3.80;99.90;;;;;;6045990;23;20213;-83
2021/01/09 09:36:30;;;;;;;21.02;13.90;;;3.90;99.90;;;;;;6037367;23;20182;-84
2021/01/09 09:38:57;;;;;;;21.20;14.10;;;3.70;99.90;;;;;;6045420;23;20222;-83
2021/01/09 09:41:33;;;;;;;25.80;15.10;;;3.70;99.90;;;;;;6045818;23;20186;-83
2021/01/09 09:44:00;;;;;;;21.92;15.63;;;3.70;99.90;;;;;;6045947;23;20666;-83
2021/01/09 09:50:06;;;;;;;20.40;16.33;;;3.70;99.90;;;;;;5941921;24;20188;-83
2021/01/09 09:53:33;;;;;;;;;;;;;;;;;;;;;
2021/01/09 09:56:13;;;;;;;17.52;13.75;;;3.70;99.90;;;;;;6048442;23;20214;-83
2021/01/09 09:58:48;;;;;;;23.45;15.30;;;3.80;99.90;;;;;;6047173;23;20224;-83
2021/01/09 10:01:18;;;;;;;19.88;16.10;;;3.70;99.90;;;;;;6049657;23;20172;-83
2021/01/09 10:03:46;;;;;;;17.58;14.50;;;3.60;99.90;;;;;;6047907;23;20187;-84
2021/01/09 10:06:13;;;;;;;18.92;13.75;;;3.70;99.90;;;;;;6043661;23;20182;-81
2021/01/09 10:08:41;;;;;;;20.35;17.15;;;3.60;99.90;;;;;;6041390;23;20221;-81
2021/01/09 10:11:07;;;;;;;21.02;14.40;;;3.50;99.90;;;;;;6041796;23;20182;-80
2021/01/09 10:13:34;;;;;;;18.48;13.55;;;3.40;99.90;;;;;;6041244;23;20202;-80
2021/01/09 10:16:01;;;;;;;17.70;14.10;;;3.30;99.90;;;;;;6041326;23;20193;-79
2021/01/09 10:18:30;;;;;;;17.50;13.73;;;3.30;99.90;;;;;;6041127;23;20817;-80
2021/01/09 10:21:14;;;;;;;18.88;13.30;;;3.30;99.90;;;;;;6041815;23;20182;-80
2021/01/09 10:23:41;;;;;;;18.75;13.98;;;3.20;99.90;;;;;;6044322;23;20193;-79
2021/01/09 10:26:07;;;;;;;14.88;11.75;;;3.20;99.90;;;;;;6040981;23;20182;-79
2021/01/09 10:28:33;;;;;;;18.73;12.90;;;3.20;99.90;;;;;;6040174;23;20258;-79
2021/01/09 10:31:00;;;;;;;18.48;11.60;;;3.10;99.90;;;;;;6040337;23;20186;-79
2021/01/09 10:33:26;;;;;;;19.67;15.07;;;3.10;99.90;;;;;;6040954;23;20202;-80
2021/01/09 10:35:52;;;;;;;19.80;14.30;;;3.10;99.90;;;;;;6040330;23;20185;-80
2021/01/09 10:38:18;;;;;;;19.52;14.80;;;3.10;99.90;;;;;;6040932;23;20214;-79
2021/01/09 10:40:45;;;;;;;19.23;13.90;;;3.00;99.90;;;;;;6040706;23;20182;-79
2021/01/09 10:43:11;;;;;;;18.00;14.55;;;3.10;99.90;;;;;;6041138;23;20189;-79
2021/01/09 10:45:38;;;;;;;19.55;14.80;;;3.20;99.90;;;;;;6040429;23;20185;-80
2021/01/09 10:48:05;;;;;;;19.48;12.80;;;3.20;99.90;;;;;;6040295;23;20205;-79
2021/01/09 10:50:31;;;;;;;17.60;13.82;;;3.30;99.90;;;;;;6040451;23;20186;-79
2021/01/09 10:52:57;;;;;;;15.98;12.38;;;3.40;99.90;;;;;;6040211;23;20671;-79
2021/01/09 10:55:23;;;;;;;14.88;11.45;;;3.50;99.90;;;;;;6041132;23;20182;-79
2021/01/09 10:57:50;;;;;;;14.48;10.63;;;3.50;99.90;;;;;;6040154;23;20206;-79
2021/01/09 11:00:19;;;;;;;13.27;10.02;;;3.60;99.90;;;;;;6040177;23;20190;-79
2021/01/09 11:02:45;;;;;;;12.48;9.30;;;3.80;99.90;;;;;;6039520;23;20221;-79
2021/01/09 11:05:12;;;;;;;11.60;10.35;;;3.90;99.90;;;;;;6040166;23;20184;-79
2021/01/09 11:07:38;;;;;;;12.55;11.23;;;4.10;99.90;;;;;;6040382;23;20207;-80
2021/01/09 11:10:05;;;;;;;8.93;8.02;;;4.20;99.90;;;;;;6041172;23;20174;-80
2021/01/09 11:12:31;;;;;;;13.50;10.00;;;4.40;99.90;;;;;;6043248;23;20190;-80
2021/01/09 11:14:59;;;;;;;15.32;10.93;;;4.50;99.90;;;;;;6043235;23;20250;-80
2021/01/09 11:17:25;;;;;;;13.38;10.32;;;4.50;99.90;;;;;;6043765;23;20619;-80
2021/01/09 11:19:51;;;;;;;13.52;10.90;;;4.70;99.90;;;;;;6043180;23;20225;-80
2021/01/09 11:22:18;;;;;;;14.65;10.80;;;4.90;99.90;;;;;;6042737;23;20188;-81
2021/01/09 11:24:44;;;;;;;14.73;10.27;;;5.20;99.90;;;;;;6043066;23;20268;-80
2021/01/09 11:27:10;;;;;;;14.23;10.38;;;5.60;99.90;;;;;;6042863;23;20202;-80
2021/01/09 11:29:37;;;;;;;11.35;10.30;;;6.10;99.90;;;;;;6043710;23;20193;-81
2021/01/09 11:32:05;;;;;;;10.30;8.02;;;6.60;99.90;;;;;;6043382;23;20213;-81
2021/01/09 11:34:32;;;;;;;8.82;7.50;;;7.10;99.30;;;;;;6043193;23;20670;-80
2021/01/09 11:37:00;;;;;;;9.82;8.60;;;7.50;97.80;;;;;;6041139;23;20186;-80
2021/01/09 11:39:26;;;;;;;8.18;7.07;;;7.80;96.00;;;;;;6039669;23;20186;-80
2021/01/09 11:41:57;;;;;;;12.18;9.60;;;7.90;93.40;;;;;;6040680;23;20196;-80
2021/01/09 11:44:23;;;;;;;10.52;9.02;;;8.00;94.10;;;;;;6040818;23;20166;-80
2021/01/09 11:46:49;;;;;;;14.30;11.70;;;8.30;94.20;;;;;;6040917;23;20182;-80
2021/01/09 11:49:16;;;;;;;11.93;10.68;;;8.90;94.40;;;;;;6041088;23;20186;-79
2021/01/09 11:51:42;;;;;;;12.50;11.20;;;9.60;93.40;;;;;;6040529;23;20190;-80
2021/01/09 11:54:09;;;;;;;10.55;9.55;;;10.40;92.50;;;;;;6040643;23;20207;-79
2021/01/09 11:56:35;;;;;;;10.00;8.43;;;11.00;88.90;;;;;;6040737;23;20195;-80
2021/01/09 11:59:01;;;;;;;9.43;8.40;;;11.40;86.90;;;;;;6040925;23;20203;-80
2021/01/09 12:01:35;;;;;;;11.50;9.20;;;11.30;79.90;;;;;;6041336;23;20182;-80
2021/01/09 12:04:01;;;;;;;10.88;9.80;;;10.80;80.60;;;;;;6040858;23;20403;-80
2021/01/09 12:06:28;;;;;;;10.87;9.43;;;10.60;80.60;;;;;;6040991;23;20193;-80
2021/01/09 12:08:54;;;;;;;9.90;9.00;;;10.60;83.40;;;;;;6040231;23;20447;-80
2021/01/09 12:11:21;;;;;;;11.38;9.77;;;10.30;80.50;;;;;;6040359;23;20655;-80
2021/01/09 12:13:47;;;;;;;11.57;8.35;;;9.90;81.40;;;;;;6040653;23;20198;-80
2021/01/09 12:16:13;;;;;;;9.13;8.23;;;9.40;82.40;;;;;;6041013;23;20570;-80
2021/01/09 12:18:40;;;;;;;12.07;9.13;;;9.40;82.70;;;;;;6041193;23;20253;-80
2021/01/09 12:21:06;;;;;;;10.10;9.10;;;9.10;83.50;;;;;;6040593;23;20506;-80
2021/01/09 12:23:33;;;;;;;10.75;9.23;;;8.60;83.60;;;;;;6040367;23;20182;-80
2021/01/09 12:25:59;;;;;;;11.10;8.23;;;8.20;84.70;;;;;;6040626;23;20182;-80
2021/01/09 12:28:25;;;;;;;9.05;7.50;;;7.50;85.10;;;;;;6042360;23;20261;-80
2021/01/09 12:30:52;;;;;;;10.80;9.38;;;7.00;86.30;;;;;;6041845;23;20186;-79
2021/01/09 12:33:18;;;;;;;9.85;8.73;;;6.70;87.80;;;;;;6042536;23;20198;-80
2021/01/09 12:35:46;;;;;;;12.38;9.20;;;6.30;89.40;;;;;;6041934;23;20238;-80
2021/01/09 12:38:12;;;;;;;12.98;9.45;;;6.00;90.50;;;;;;6042050;23;20267;-79
2021/01/09 12:40:39;;;;;;;9.98;8.73;;;5.60;91.30;;;;;;6042327;23;20693;-80
2021/01/09 12:43:05;;;;;;;9.65;7.80;;;5.30;92.20;;;;;;6042521;23;20182;-80
2021/01/09 12:45:33;;;;;;;11.65;10.45;;;5.10;92.70;;;;;;6042511;23;20205;-80
2021/01/09 12:47:59;;;;;;;11.05;9.07;;;5.10;93.50;;;;;;6041855;23;20215;-80
2021/01/09 12:50:26;;;;;;;10.00;8.45;;;5.00;93.50;;;;;;6042040;23;20187;-80
2021/01/09 12:52:52;;;;;;;11.18;8.60;;;4.90;93.50;;;;;;6042096;23;20203;-80
2021/01/09 12:55:18;;;;;;;8.98;7.40;;;4.70;93.70;;;;;;6042219;23;20182;-78
2021/01/09 12:57:45;;;;;;;10.02;7.22;;;4.60;93.90;;;;;;6041883;23;20694;-80
2021/01/09 13:03:23;;;;;;;9.45;8.45;;;4.20;94.30;;;;;;6035073;23;20230;-80
2021/01/09 13:05:49;;;;;;;11.38;8.38;;;4.00;94.80;;;;;;6041773;23;20294;-80
2021/01/09 13:08:16;;;;;;;8.93;8.02;;;4.00;95.00;;;;;;6041410;23;20211;-80
2021/01/09 13:10:42;;;;;;;7.60;6.60;;;3.90;95.10;;;;;;6041785;23;20195;-79
2021/01/09 13:13:09;;;;;;;9.73;8.25;;;3.90;95.30;;;;;;6041166;23;20215;-80
2021/01/09 13:15:37;;;;;;;9.90;7.80;;;3.70;95.10;;;;;;6041838;23;20673;-79
2021/01/09 13:18:03;;;;;;;9.25;6.72;;;3.60;95.10;;;;;;6041751;23;20210;-81
2021/01/09 13:20:29;;;;;;;8.30;6.93;;;3.30;95.30;;;;;;6042245;23;20194;-81
2021/01/09 13:22:56;;;;;;;8.35;7.65;;;3.30;96.10;;;;;;6043802;23;20190;-82
2021/01/09 13:25:25;;;;;;;9.75;6.47;;;3.30;96.20;;;;;;6047056;23;20185;-82
2021/01/09 13:27:51;;;;;;;7.50;6.80;;;3.30;96.40;;;;;;6042146;23;20207;-81
2021/01/09 13:30:21;;;;;;;9.57;7.10;;;3.40;97.00;;;;;;6041618;23;20192;-80
2021/01/09 13:32:47;;;;;;;9.85;6.95;;;3.50;96.90;;;;;;6041541;23;20182;-80
2021/01/09 13:35:13;;;;;;;8.88;6.72;;;3.60;96.90;;;;;;6041824;23;20195;-80
2021/01/09 13:37:40;;;;;;;8.20;7.25;;;3.60;96.90;;;;;;6041506;23;20202;-80
2021/01/09 13:40:07;;;;;;;10.15;7.30;;;3.70;96.90;;;;;;6041815;23;20182;-80
2021/01/09 13:42:33;;;;;;;9.60;7.15;;;3.70;97.20;;;;;;6041277;23;20182;-80
2021/01/09 13:45:00;;;;;;;8.13;6.72;;;3.80;96.70;;;;;;6041881;23;20182;-80
2021/01/09 13:47:27;;;;;;;8.07;6.85;;;3.80;96.90;;;;;;6041613;23;20213;-81
2021/01/09 13:49:53;;;;;;;7.88;6.95;;;3.70;96.70;;;;;;6041899;23;20210;-80
2021/01/09 13:52:19;;;;;;;8.05;7.25;;;3.80;97.00;;;;;;6041323;23;20206;-80
2021/01/09 13:54:46;;;;;;;10.20;6.72;;;3.90;97.70;;;;;;6041756;23;20207;-80
2021/01/09 13:57:12;;;;;;;7.07;6.38;;;4.20;98.00;;;;;;6041485;23;20207;-80
2021/01/09 13:59:38;;;;;;;8.35;7.45;;;4.70;98.00;;;;;;6042043;23;20184;-80
2021/01/09 14:02:04;;;;;;;8.13;7.35;;;5.60;97.10;;;;;;6041080;23;20188;-81
2021/01/09 14:04:31;;;;;;;8.70;7.72;;;6.10;95.40;;;;;;6041822;23;20192;-80
2021/01/09 14:06:57;;;;;;;9.50;8.32;;;6.10;94.20;;;;;;6041289;23;20195;-80
2021/01/09 14:09:24;;;;;;;8.60;7.45;;;6.00;93.80;;;;;;6042560;23;20201;-80
2021/01/09 14:11:50;;;;;;;6.57;5.88;;;5.90;93.70;;;;;;6042516;23;20272;-80
2021/01/09 14:14:17;;;;;;;8.20;6.80;;;5.80;93.80;;;;;;6041607;23;20205;-80
2021/01/09 14:16:43;;;;;;;7.05;6.32;;;5.70;93.60;;;;;;6041393;23;20266;-79
2021/01/09 14:19:10;;;;;;;7.20;6.50;;;5.50;93.60;;;;;;6041234;23;20225;-80
2021/01/09 14:21:37;;;;;;;8.57;6.38;;;5.40;93.70;;;;;;6041076;23;20637;-79
2021/01/09 14:24:05;;;;;;;8.60;7.03;;;5.20;94.00;;;;;;6041924;23;20182;-79
2021/01/09 14:26:33;;;;;;;7.72;7.03;;;5.10;94.10;;;;;;6041787;23;20194;-80
2021/01/09 14:28:59;;;;;;;8.88;6.78;;;5.00;94.20;;;;;;6042026;23;20211;-80
2021/01/09 14:31:27;;;;;;;10.63;8.30;;;4.90;94.30;;;;;;6040909;23;20653;-80
2021/01/09 14:33:54;;;;;;;9.18;7.80;;;4.70;94.50;;;;;;6041352;23;20204;-80
2021/01/09 14:36:21;;;;;;;9.10;7.70;;;4.60;94.70;;;;;;6040884;23;20667;-80
2021/01/09 14:38:48;;;;;;;8.55;7.80;;;4.50;94.80;;;;;;6041376;23;20207;-80
2021/01/09 14:41:15;;;;;;;8.15;6.63;;;4.50;95.20;;;;;;6041384;23;20520;-81
2021/01/09 14:43:42;;;;;;;8.10;6.50;;;4.30;95.10;;;;;;6041258;23;20182;-80
2021/01/09 14:46:12;;;;;;;8.65;7.57;;;4.20;95.80;;;;;;6041434;23;20182;-81
2021/01/09 14:48:38;;;;;;;9.63;7.85;;;4.20;95.50;;;;;;6042119;23;20202;-81
2021/01/09 14:51:05;;;;;;;7.78;6.97;;;4.00;95.40;;;;;;6041108;23;20652;-81
2021/01/09 14:53:32;;;;;;;8.38;7.57;;;3.90;95.60;;;;;;6040735;23;20265;-81
2021/01/09 14:56:00;;;;;;;9.43;7.53;;;3.70;95.90;;;;;;6041198;23;20223;-81
2021/01/09 14:58:26;;;;;;;8.32;7.53;;;3.60;96.20;;;;;;6041470;23;20329;-81
2021/01/09 15:00:53;;;;;;;10.52;8.55;;;3.50;96.50;;;;;;6040725;23;20190;-81
2021/01/09 15:03:19;;;;;;;14.15;8.20;;;3.40;96.70;;;;;;6040216;23;20648;-81
2021/01/09 15:05:46;;;;;;;9.18;8.10;;;3.30;96.80;;;;;;6040388;23;20194;-81
2021/01/09 15:08:13;;;;;;;8.55;7.07;;;3.30;97.10;;;;;;6039691;23;20220;-82
2021/01/09 15:10:40;;;;;;;10.00;7.07;;;3.20;97.40;;;;;;6039414;23;20281;-81
2021/01/09 15:13:07;;;;;;;12.30;8.40;;;3.10;97.70;;;;;;6040671;23;20586;-81
2021/01/09 15:15:33;;;;;;;9.98;9.02;;;3.00;97.60;;;;;;6041316;23;20214;-81
2021/01/09 15:18:01;;;;;;;8.25;7.45;;;2.90;97.80;;;;;;6039736;23;20198;-81
2021/01/09 15:20:27;;;;;;;11.15;8.98;;;2.80;98.00;;;;;;6041557;23;20269;-81
2021/01/09 15:22:53;;;;;;;10.63;8.60;;;2.80;98.20;;;;;;6040463;23;20208;-81
2021/01/09 15:25:20;;;;;;;11.00;9.25;;;2.70;98.30;;;;;;6040725;23;20182;-82
2021/01/09 15:27:48;;;;;;;11.02;8.23;;;2.70;98.50;;;;;;6041596;23;20209;-81
2021/01/09 15:30:18;;;;;;;15.45;9.13;;;2.60;98.70;;;;;;6041673;23;20183;-82
2021/01/09 15:32:44;;;;;;;10.65;8.15;;;2.50;99.10;;;;;;6041186;23;20499;-82
2021/01/09 15:35:11;;;;;;;11.45;8.60;;;2.40;98.70;;;;;;6042051;23;20185;-81
2021/01/09 15:37:37;;;;;;;12.10;9.40;;;2.30;98.80;;;;;;6040922;23;20206;-82
2021/01/09 15:40:06;;;;;;;10.70;8.38;;;2.20;98.90;;;;;;6040408;23;20193;-81
2021/01/09 15:42:33;;;;;;;12.13;8.35;;;2.10;99.00;;;;;;6040429;23;20167;-82
2021/01/09 15:44:59;;;;;;;10.95;8.32;;;2.00;99.20;;;;;;6040300;23;20162;-81
2021/01/09 15:47:26;;;;;;;9.27;7.70;;;1.90;99.30;;;;;;6038912;23;20257;-81
2021/01/09 15:49:53;;;;;;;12.25;8.98;;;1.90;99.50;;;;;;6042900;23;20186;-82
2021/01/09 15:52:19;;;;;;;8.52;7.18;;;1.80;99.60;;;;;;6045596;23;20186;-82
2021/01/09 15:54:45;;;;;;;12.65;10.13;;;1.80;99.70;;;;;;6047281;23;20533;-82
2021/01/09 15:57:11;;;;;;;11.23;7.95;;;1.70;99.80;;;;;;6047817;23;20213;-82
2021/01/09 15:59:38;;;;;;;10.07;8.15;;;1.70;99.90;;;;;;6046598;23;20182;-82
2021/01/09 16:02:07;;;;;;;10.65;8.75;;;1.60;99.90;;;;;;6047607;23;20189;-82
2021/01/09 16:04:34;;;;;;;10.60;9.38;;;1.60;99.90;;;;;;6048470;23;20185;-83
2021/01/09 16:07:00;;;;;;;10.48;8.15;;;1.50;99.90;;;;;;6047248;23;20183;-82
2021/01/09 16:09:26;;;;;;;13.80;9.50;;;1.50;99.90;;;;;;6048098;23;20190;-82
2021/01/09 16:11:54;;;;;;;14.27;9.70;;;1.40;99.90;;;;;;6048455;23;20185;-81
2021/01/09 16:14:20;;;;;;;14.10;10.30;;;1.30;99.90;;;;;;6048140;23;20202;-82
2021/01/09 16:16:46;;;;;;;14.95;8.68;;;1.20;99.90;;;;;;6047509;23;20237;-83
2021/01/09 16:19:12;;;;;;;13.65;9.80;;;1.10;99.90;;;;;;6048124;23;20237;-82
2021/01/09 16:21:39;;;;;;;13.32;10.63;;;1.10;99.90;;;;;;6047590;23;20206;-82
2021/01/09 16:24:06;;;;;;;12.63;7.90;;;1.10;99.90;;;;;;6048039;23;20189;-82
2021/01/09 16:26:32;;;;;;;9.68;8.32;;;1.00;99.90;;;;;;6047707;23;20186;-82
2021/01/09 16:29:02;;;;;;;14.80;10.93;;;1.00;99.90;;;;;;6047768;23;20202;-82
2021/01/09 16:31:37;;;;;;;14.55;10.52;;;0.90;99.90;;;;;;6047301;23;20192;-81
2021/01/09 16:34:04;;;;;;;12.55;9.23;;;0.90;99.90;;;;;;6046962;23;20197;-81
2021/01/09 16:36:30;;;;;;;14.98;9.85;;;0.90;99.90;;;;;;6048138;23;20182;-81
2021/01/09 16:38:58;;;;;;;12.45;9.77;;;0.80;99.90;;;;;;6047805;23;20201;-81
2021/01/09 16:41:26;;;;;;;13.48;9.30;;;0.80;99.90;;;;;;6047889;23;20189;-81
2021/01/09 16:43:52;;;;;;;16.95;10.48;;;0.70;99.90;;;;;;6047582;23;20205;-81
2021/01/09 16:46:18;;;;;;;15.05;9.45;;;0.70;99.90;;;;;;6047202;23;20182;-81
2021/01/09 16:48:45;;;;;;;15.32;10.02;;;0.70;99.90;;;;;;6047932;23;20284;-81
2021/01/09 16:51:17;;;;;;;15.45;11.35;;;0.70;99.90;;;;;;6047610;23;20185;-81
2021/01/09 16:53:43;;;;;;;19.25;14.02;;;0.60;99.90;;;;;;6047072;23;20575;-81
2021/01/09 16:56:10;;;;;;;15.30;12.70;;;0.60;99.90;;;;;;6047825;23;20186;-83
2021/01/09 16:58:38;;;;;;;13.20;9.90;;;0.60;99.90;;;;;;6050861;23;20213;-82
2021/01/09 17:01:04;;;;;;;14.63;10.88;;;0.60;99.90;;;;;;6054343;23;20209;-83
2021/01/09 17:03:31;;;;;;;13.57;9.63;;;0.60;99.90;;;;;;6051749;23;20647;-81
2021/01/09 17:05:57;;;;;;;11.80;8.68;;;0.60;99.90;;;;;;6050257;23;20192;-82
2021/01/09 17:08:23;;;;;;;15.07;9.93;;;0.60;99.90;;;;;;6050560;23;20210;-82
2021/01/09 17:10:49;;;;;;;11.85;9.45;;;0.50;99.90;;;;;;6052551;23;20186;-81
2021/01/09 17:13:17;;;;;;;10.40;8.35;;;0.40;99.90;;;;;;6051132;23;20662;-82
2021/01/09 17:15:43;;;;;;;13.70;9.20;;;0.40;99.90;;;;;;6051723;23;20650;-81
2021/01/09 17:18:09;;;;;;;11.45;9.25;;;0.40;99.90;;;;;;6051483;23;20202;-81
2021/01/09 17:20:36;;;;;;;11.00;8.75;;;0.40;99.90;;;;;;6051402;23;20199;-81
2021/01/09 17:23:03;;;;;;;8.52;7.70;;;0.40;99.90;;;;;;6052293;23;20174;-81
2021/01/09 17:25:29;;;;;;;12.45;8.45;;;0.40;99.90;;;;;;6050313;23;20196;-81
2021/01/09 17:27:55;;;;;;;9.38;8.05;;;0.40;99.90;;;;;;6047610;23;20209;-81
2021/01/09 17:30:23;;;;;;;12.88;8.90;;;0.40;99.90;;;;;;6047726;23;20186;-81
2021/01/09 17:32:50;;;;;;;12.35;9.00;;;0.50;99.90;;;;;;6047192;23;20245;-81
2021/01/09 17:35:18;;;;;;;9.98;8.57;;;0.40;99.90;;;;;;6047160;23;20223;-81
2021/01/09 17:37:48;;;;;;;13.18;10.23;;;0.40;99.90;;;;;;6049538;23;20880;-81
2021/01/09 17:40:14;;;;;;;9.43;7.97;;;0.40;99.90;;;;;;6048171;23;20188;-81
2021/01/09 17:42:40;;;;;;;16.73;9.57;;;0.40;99.90;;;;;;6049615;23;20186;-80
2021/01/09 17:45:08;;;;;;;9.63;8.73;;;0.40;99.90;;;;;;6048661;23;20186;-81
2021/01/09 17:47:35;;;;;;;13.40;8.90;;;0.30;99.90;;;;;;6046129;23;20216;-81
2021/01/09 17:50:01;;;;;;;13.02;9.15;;;0.30;99.90;;;;;;6047395;23;20236;-81
2021/01/09 17:52:28;;;;;;;12.98;10.40;;;0.30;99.90;;;;;;6047499;23;20186;-81
2021/01/09 17:54:54;;;;;;;16.00;12.13;;;0.30;99.90;;;;;;6048168;23;20537;-82
2021/01/09 17:57:20;;;;;;;12.27;11.07;;;0.20;99.90;;;;;;6051644;23;20205;-82
2021/01/09 17:59:48;;;;;;;16.38;10.02;;;0.20;99.90;;;;;;6051397;23;20182;-82
2021/01/09 18:02:15;;;;;;;13.10;10.18;;;0.20;99.90;;;;;;6050893;23;20245;-82
2021/01/09 18:04:42;;;;;;;13.00;10.90;;;0.10;99.90;;;;;;6050942;23;20182;-81
2021/01/09 18:07:09;;;;;;;12.77;11.00;;;-0.10;99.90;;;;;;6050379;23;20209;-82
2021/01/09 18:09:37;;;;;;;16.15;11.82;;;-0.10;99.90;;;;;;6050532;23;20316;-82
2021/01/09 18:12:04;;;;;;;14.02;10.25;;;-0.10;99.90;;;;;;6051582;23;20247;-82
2021/01/09 18:14:30;;;;;;;18.38;14.48;;;-0.10;99.90;;;;;;6050930;23;20202;-81
2021/01/09 18:16:56;;;;;;;19.08;12.93;;;-0.20;99.90;;;;;;6051621;23;20186;-82
2021/01/09 18:19:22;;;;;;;15.88;10.88;;;-0.20;99.90;;;;;;6051306;23;20190;-82
2021/01/09 18:21:49;;;;;;;16.25;10.60;;;-0.20;99.90;;;;;;6051274;23;20186;-82
2021/01/09 18:24:16;;;;;;;11.70;9.30;;;-0.30;99.90;;;;;;6051210;23;20518;-82
2021/01/09 18:26:42;;;;;;;13.98;9.77;;;-0.30;99.90;;;;;;6052202;23;20190;-83
2021/01/09 18:29:08;;;;;;;14.52;10.35;;;-0.30;99.90;;;;;;6052210;23;20204;-82
2021/01/09 18:31:35;;;;;;;13.15;10.70;;;-0.30;99.90;;;;;;6052366;23;20210;-82
2021/01/09 18:34:01;;;;;;;12.52;11.05;;;-0.30;99.90;;;;;;6052024;23;20218;-82
2021/01/09 18:36:29;;;;;;;17.20;10.32;;;-0.40;99.90;;;;;;6051427;23;20208;-81
2021/01/09 18:38:57;;;;;;;15.10;11.07;;;-0.40;99.90;;;;;;6051801;23;20280;-82
2021/01/09 18:41:24;;;;;;;13.35;10.85;;;-0.40;99.90;;;;;;6052410;23;20182;-82
2021/01/09 18:43:50;;;;;;;13.70;11.35;;;-0.30;99.90;;;;;;6054021;23;20185;-82
2021/01/09 18:46:18;;;;;;;12.77;10.25;;;-0.30;99.90;;;;;;6053433;23;20187;-82
2021/01/09 18:48:45;;;;;;;16.35;11.63;;;-0.30;99.90;;;;;;6054056;23;20213;-83
2021/01/09 18:51:16;;;;;;;13.63;12.23;;;-0.20;99.90;;;;;;6056938;23;20522;-83
2021/01/09 18:53:44;;;;;;;17.50;12.95;;;-0.20;99.90;;;;;;6057530;23;20196;-83
2021/01/09 18:56:14;;;;;;;15.45;13.65;;;-0.20;99.90;;;;;;6057807;23;20188;-82
2021/01/09 18:58:40;;;;;;;15.20;13.70;;;-0.20;99.90;;;;;;6057274;23;20205;-82
2021/01/09 19:01:06;;;;;;;21.27;14.77;;;-0.20;99.90;;;;;;6059146;23;20188;-82
2021/01/09 19:03:37;;;;;;;16.30;12.40;;;-0.20;99.90;;;;;;6056760;23;20235;-82
2021/01/09 19:06:04;;;;;;;17.23;14.80;;;-0.20;99.90;;;;;;6057976;23;20198;-84
2021/01/09 19:08:36;;;;;;;16.65;13.73;;;-0.20;99.90;;;;;;6056644;23;20265;-84
2021/01/09 19:11:04;;;;;;;20.50;13.50;;;-0.20;99.90;;;;;;6057788;23;20173;-84
2021/01/09 19:13:34;;;;;;;15.73;14.18;;;-0.20;99.90;;;;;;6057835;23;20201;-83
2021/01/09 19:16:00;;;;;;;18.77;14.43;;;-0.20;99.90;;;;;;6058422;23;20166;-83
2021/01/09 19:18:26;;;;;;;19.52;14.38;;;-0.20;99.90;;;;;;6057567;23;20202;-82
2021/01/09 19:20:54;;;;;;;17.13;14.68;;;-0.20;99.90;;;;;;6057080;23;20242;-82
2021/01/09 19:23:20;;;;;;;17.33;15.30;;;-0.20;99.90;;;;;;6056525;23;20186;-82
2021/01/09 19:25:54;;;;;;;16.67;12.57;;;-0.30;99.90;;;;;;6056313;23;20246;-83
2021/01/09 19:28:20;;;;;;;17.08;12.63;;;-0.30;99.90;;;;;;6057419;23;20229;-83
2021/01/09 19:30:47;;;;;;;19.98;17.38;;;-0.30;99.90;;;;;;6056796;23;20263;-83
2021/01/09 19:33:13;;;;;;;19.67;17.52;;;-0.20;99.90;;;;;;6057019;23;20183;-83
2021/01/09 19:35:53;;;;;;;25.13;15.80;;;-0.30;99.90;;;;;;6056197;23;20679;-83
2021/01/09 19:38:20;;;;;;;19.15;15.70;;;-0.30;99.90;;;;;;6054238;23;20242;-84
2021/01/09 19:40:46;;;;;;;18.52;13.02;;;-0.30;99.90;;;;;;6048257;23;20191;-80
2021/01/09 19:43:12;;;;;;;19.13;15.02;;;-0.30;99.90;;;;;;6047070;23;20190;-81
2021/01/09 19:45:38;;;;;;;17.80;13.48;;;-0.30;99.90;;;;;;6047335;23;20185;-81
2021/01/09 19:48:06;;;;;;;18.73;15.15;;;-0.30;99.90;;;;;;6046843;23;20238;-81
2021/01/09 19:50:33;;;;;;;18.77;15.88;;;-0.40;99.90;;;;;;6047300;23;20283;-81
2021/01/09 19:53:00;;;;;;;14.05;12.23;;;-0.30;99.90;;;;;;6048919;23;20212;-81
2021/01/09 19:55:26;;;;;;;19.98;15.07;;;-0.30;99.90;;;;;;6050658;23;20213;-82
2021/01/09 19:57:52;;;;;;;18.35;12.05;;;-0.30;99.90;;;;;;6049812;23;20210;-81
2021/01/09 20:00:20;;;;;;;25.02;22.70;;;-0.30;99.90;;;;;;6050781;23;20181;-81
2021/01/09 20:02:46;;;;;;;16.45;14.00;;;-0.20;99.90;;;;;;6049990;23;20186;-82
2021/01/09 20:05:13;;;;;;;18.27;16.05;;;-0.10;99.90;;;;;;6050744;23;20186;-82
2021/01/09 20:07:40;;;;;;;13.75;10.88;;;0.00;99.90;;;;;;6050263;23;20210;-82
2021/01/09 20:10:07;;;;;;;21.50;13.13;;;0.00;99.90;;;;;;6046219;23;20170;-83
2021/01/09 20:12:34;;;;;;;17.52;14.05;;;0.10;99.90;;;;;;6051059;23;20225;-84
2021/01/09 20:15:01;;;;;;;18.63;13.18;;;0.20;99.90;;;;;;6050182;23;20202;-84
2021/01/09 20:17:41;;;;;;;14.52;12.60;;;0.20;99.90;;;;;;6049127;23;20206;-83
2021/01/09 20:20:08;;;;;;;16.98;14.43;;;0.20;99.90;;;;;;6046694;23;20189;-83
2021/01/09 20:22:50;;;;;;;18.10;15.48;;;0.30;99.90;;;;;;6048104;23;20233;-84
2021/01/09 20:25:32;;;;;;;19.92;17.52;;;0.30;99.90;;;;;;6045556;23;20232;-84
2021/01/09 20:28:11;;;;;;;15.48;12.55;;;0.30;99.90;;;;;;5988678;23;20211;-83
2021/01/09 20:30:41;;;;;;;15.02;12.27;;;0.30;99.90;;;;;;6041934;23;20192;-83
2021/01/09 20:33:07;;;;;;;15.77;11.50;;;0.40;99.90;;;;;;6049139;23;20179;-85
2021/01/09 20:46:49;;;;;;;;;;;;;;;;;;;;;
2021/01/09 20:49:40;;;;;;;12.07;10.40;;;0.50;99.90;;;;;;5773233;24;20225;-85
2021/01/09 20:52:31;;;;;;;13.20;9.80;;;0.50;99.90;;;;;;5935475;24;20208;-84
2021/01/09 20:55:22;;;;;;;13.98;11.43;;;0.60;99.90;;;;;;5937468;24;20214;-84
2021/01/09 20:58:02;;;;;;;19.33;11.65;;;0.60;99.90;;;;;;5935923;24;20256;-84
2021/01/09 21:00:34;;;;;;;17.02;12.02;;;0.70;99.90;;;;;;5939060;24;20173;-85
2021/01/09 21:03:17;;;;;;;13.18;11.20;;;0.70;99.90;;;;;;5988108;23;20265;-84
2021/01/09 21:06:18;;;;;;;;;;;;;;;;;;;;;
2021/01/09 21:08:46;;;;;;;12.15;8.95;;;0.70;99.90;;;;;;6037736;23;20252;-84
2021/01/09 21:11:28;;;;;;;12.57;9.63;;;0.70;99.90;;;;;;6052849;23;20190;-83
2021/01/09 21:13:57;;;;;;;12.32;10.05;;;0.80;99.90;;;;;;6012796;23;20206;-84
2021/01/09 21:16:46;;;;;;;11.05;8.48;;;0.80;99.90;;;;;;6049840;23;20190;-84
2021/01/09 21:19:22;;;;;;;11.82;8.80;;;0.80;99.90;;;;;;6049663;23;20686;-84
2021/01/09 21:22:10;;;;;;;13.10;9.13;;;0.80;99.90;;;;;;6049307;23;20177;-85
2021/01/09 21:24:38;;;;;;;9.80;8.35;;;0.90;99.90;;;;;;6048676;23;20193;-85
2021/01/09 21:27:17;;;;;;;10.48;7.95;;;1.00;99.90;;;;;;6049873;23;20186;-85
2021/01/09 21:29:49;;;;;;;11.88;8.95;;;1.00;99.90;;;;;;6049492;23;20197;-84
2021/01/09 21:32:19;;;;;;;15.57;10.32;;;1.00;99.90;;;;;;6050455;23;20177;-84
2021/01/09 21:34:56;;;;;;;16.73;11.75;;;1.00;99.90;;;;;;6048840;23;20610;-85
2021/01/09 21:37:32;;;;;;;10.90;8.88;;;1.00;99.90;;;;;;6049184;23;20288;-84
2021/01/09 21:40:19;;;;;;;;;;;;;;;;;;;;;
2021/01/09 21:42:54;;;;;;;13.35;9.77;;;1.10;99.90;;;;;;6037547;23;20232;-85
2021/01/09 21:45:30;;;;;;;9.85;7.97;;;1.10;99.90;;;;;;6048976;23;20162;-84
2021/01/09 21:48:01;;;;;;;10.50;8.88;;;1.10;99.90;;;;;;6052366;23;20209;-83
2021/01/09 21:50:53;;;;;;;11.50;8.05;;;1.10;99.90;;;;;;6053772;23;20198;-85
2021/01/09 21:53:24;;;;;;;10.68;8.63;;;1.10;99.90;;;;;;5990900;23;20195;-85
2021/01/09 22:14:34;;;;;;;8.68;7.47;;;1.20;99.90;;;;;;5810862;24;20211;-85
2021/01/09 22:17:00;;;;;;;10.68;8.55;;;1.10;99.90;;;;;;5844261;24;20185;-85
2021/01/09 22:19:26;;;;;;;10.55;8.38;;;1.10;99.90;;;;;;5964892;23;20187;-85
2021/01/09 22:21:52;;;;;;;7.95;7.13;;;1.10;99.90;;;;;;6084315;23;20195;-85
2021/01/09 22:24:19;;;;;;;9.32;7.35;;;1.10;99.90;;;;;;6087548;23;20178;-84
2021/01/09 22:26:45;;;;;;;8.93;8.07;;;1.20;99.90;;;;;;6087084;23;20205;-85
2021/01/09 22:29:11;;;;;;;10.77;9.63;;;1.20;99.90;;;;;;6086083;23;20212;-84